sensor_id;sensor_type;location;lat;lon;timestamp;P1;durP1;ratioP1;P2;durP2;ratioP2
20170;SDS011;10245;51.344;6.620;2022-07-12T00:00:16;1.92;;;1.50;;
20170;SDS011;10245;51.344;6.620;2022-07-12T00:02:41;2.33;;;1.63;;
20170;SDS011;10245;51.344;6.620;2022-07-12T00:05:05;2.88;;;1.52;;
20170;SDS011;10245;51.344;6.620;2022-07-12T00:07:30;1.83;;;1.67;;
20170;SDS011;10245;51.344;6.620;2022-07-12T00:09:53;2.20;;;1.70;;
20170;SDS011;10245;51.344;6.620;2022-07-12T00:12:17;1.73;;;1.63;;
20170;SDS011;10245;51.344;6.620;2022-07-12T00:14:41;2.70;;;1.70;;
20170;SDS011;10245;51.344;6.620;2022-07-12T00:17:05;2.13;;;1.58;;
20170;SDS011;10245;51.344;6.620;2022-07-12T00:19:30;2.85;;;1.67;;
20170;SDS011;10245;51.344;6.620;2022-07-12T00:21:54;2.67;;;1.70;;
20170;SDS011;10245;51.344;6.620;2022-07-12T00:24:17;1.98;;;1.40;;
20170;SDS011;10245;51.344;6.620;2022-07-12T00:26:41;1.50;;;1.40;;
20170;SDS011;10245;51.344;6.620;2022-07-12T00:29:05;2.05;;;1.63;;
20170;SDS011;10245;51.344;6.620;2022-07-12T00:31:29;1.75;;;1.58;;
20170;SDS011;10245;51.344;6.620;2022-07-12T00:33:53;2.92;;;1.60;;
20170;SDS011;10245;51.344;6.620;2022-07-12T00:36:18;2.28;;;1.60;;
20170;SDS011;10245;51.344;6.620;2022-07-12T00:38:42;1.63;;;1.50;;
20170;SDS011;10245;51.344;6.620;2022-07-12T00:41:06;1.60;;;1.50;;
20170;SDS011;10245;51.344;6.620;2022-07-12T00:43:29;2.65;;;1.67;;
20170;SDS011;10245;51.344;6.620;2022-07-12T00:45:53;1.55;;;1.45;;
20170;SDS011;10245;51.344;6.620;2022-07-12T00:48:17;1.70;;;1.60;;
20170;SDS011;10245;51.344;6.620;2022-07-12T00:50:41;1.83;;;1.55;;
20170;SDS011;10245;51.344;6.620;2022-07-12T00:53:06;2.58;;;1.63;;
20170;SDS011;10245;51.344;6.620;2022-07-12T00:55:31;2.40;;;1.58;;
20170;SDS011;10245;51.344;6.620;2022-07-12T00:57:55;3.10;;;2.13;;
20170;SDS011;10245;51.344;6.620;2022-07-12T01:00:20;2.80;;;2.00;;
20170;SDS011;10245;51.344;6.620;2022-07-12T01:02:46;1.50;;;1.40;;
20170;SDS011;10245;51.344;6.620;2022-07-12T01:05:10;1.70;;;1.55;;
20170;SDS011;10245;51.344;6.620;2022-07-12T01:07:34;1.80;;;1.48;;
20170;SDS011;10245;51.344;6.620;2022-07-12T01:10:00;1.67;;;1.40;;
20170;SDS011;10245;51.344;6.620;2022-07-12T01:12:24;2.20;;;1.70;;
20170;SDS011;10245;51.344;6.620;2022-07-12T01:14:48;3.83;;;1.70;;
20170;SDS011;10245;51.344;6.620;2022-07-12T01:17:13;1.90;;;1.70;;
20170;SDS011;10245;51.344;6.620;2022-07-12T01:19:37;2.90;;;1.80;;
20170;SDS011;10245;51.344;6.620;2022-07-12T01:22:02;2.95;;;1.92;;
20170;SDS011;10245;51.344;6.620;2022-07-12T01:24:30;2.63;;;1.80;;
20170;SDS011;10245;51.344;6.620;2022-07-12T01:26:55;3.17;;;1.90;;
20170;SDS011;10245;51.344;6.620;2022-07-12T01:29:18;2.08;;;1.88;;
20170;SDS011;10245;51.344;6.620;2022-07-12T01:31:43;3.55;;;1.92;;
20170;SDS011;10245;51.344;6.620;2022-07-12T01:34:07;3.85;;;1.92;;
20170;SDS011;10245;51.344;6.620;2022-07-12T01:36:31;1.90;;;1.73;;
20170;SDS011;10245;51.344;6.620;2022-07-12T01:38:54;3.40;;;1.75;;
20170;SDS011;10245;51.344;6.620;2022-07-12T01:41:19;2.80;;;2.10;;
20170;SDS011;10245;51.344;6.620;2022-07-12T01:43:44;2.20;;;1.90;;
20170;SDS011;10245;51.344;6.620;2022-07-12T01:46:07;2.50;;;1.92;;
20170;SDS011;10245;51.344;6.620;2022-07-12T01:48:31;2.30;;;2.10;;
20170;SDS011;10245;51.344;6.620;2022-07-12T01:50:55;2.90;;;2.10;;
20170;SDS011;10245;51.344;6.620;2022-07-12T01:53:18;4.00;;;2.10;;
20170;SDS011;10245;51.344;6.620;2022-07-12T01:55:43;2.20;;;2.00;;
20170;SDS011;10245;51.344;6.620;2022-07-12T01:58:08;3.97;;;2.40;;
20170;SDS011;10245;51.344;6.620;2022-07-12T02:00:34;3.25;;;2.20;;
20170;SDS011;10245;51.344;6.620;2022-07-12T02:02:58;2.88;;;2.65;;
20170;SDS011;10245;51.344;6.620;2022-07-12T02:05:21;2.97;;;2.15;;
20170;SDS011;10245;51.344;6.620;2022-07-12T02:07:45;2.78;;;2.20;;
20170;SDS011;10245;51.344;6.620;2022-07-12T02:10:10;2.80;;;2.55;;
20170;SDS011;10245;51.344;6.620;2022-07-12T02:12:34;3.33;;;2.45;;
20170;SDS011;10245;51.344;6.620;2022-07-12T02:15:00;3.15;;;2.30;;
20170;SDS011;10245;51.344;6.620;2022-07-12T02:17:24;3.08;;;2.05;;
20170;SDS011;10245;51.344;6.620;2022-07-12T02:19:47;2.75;;;1.90;;
20170;SDS011;10245;51.344;6.620;2022-07-12T02:22:11;3.33;;;2.08;;
20170;SDS011;10245;51.344;6.620;2022-07-12T02:24:35;2.38;;;2.17;;
20170;SDS011;10245;51.344;6.620;2022-07-12T02:26:59;4.38;;;2.10;;
20170;SDS011;10245;51.344;6.620;2022-07-12T02:29:23;2.92;;;2.17;;
20170;SDS011;10245;51.344;6.620;2022-07-12T02:31:48;3.75;;;2.20;;
20170;SDS011;10245;51.344;6.620;2022-07-12T02:34:12;2.47;;;1.88;;
20170;SDS011;10245;51.344;6.620;2022-07-12T02:36:36;3.15;;;2.50;;
20170;SDS011;10245;51.344;6.620;2022-07-12T02:38:59;3.45;;;2.10;;
20170;SDS011;10245;51.344;6.620;2022-07-12T02:41:25;2.65;;;2.20;;
20170;SDS011;10245;51.344;6.620;2022-07-12T02:43:48;2.33;;;1.98;;
20170;SDS011;10245;51.344;6.620;2022-07-12T02:46:13;3.13;;;2.38;;
20170;SDS011;10245;51.344;6.620;2022-07-12T02:48:38;2.13;;;1.88;;
20170;SDS011;10245;51.344;6.620;2022-07-12T02:51:03;2.88;;;2.28;;
20170;SDS011;10245;51.344;6.620;2022-07-12T02:53:28;2.95;;;2.50;;
20170;SDS011;10245;51.344;6.620;2022-07-12T02:55:55;2.80;;;2.08;;
20170;SDS011;10245;51.344;6.620;2022-07-12T02:58:18;2.50;;;1.98;;
20170;SDS011;10245;51.344;6.620;2022-07-12T03:00:42;2.78;;;2.00;;
20170;SDS011;10245;51.344;6.620;2022-07-12T03:03:06;3.72;;;2.10;;
20170;SDS011;10245;51.344;6.620;2022-07-12T03:05:32;3.35;;;2.45;;
20170;SDS011;10245;51.344;6.620;2022-07-12T03:07:56;2.88;;;2.15;;
20170;SDS011;10245;51.344;6.620;2022-07-12T03:10:19;2.90;;;2.25;;
20170;SDS011;10245;51.344;6.620;2022-07-12T03:12:43;2.58;;;2.13;;
20170;SDS011;10245;51.344;6.620;2022-07-12T03:15:06;3.47;;;2.40;;
20170;SDS011;10245;51.344;6.620;2022-07-12T03:17:31;2.55;;;2.35;;
20170;SDS011;10245;51.344;6.620;2022-07-12T03:19:58;3.22;;;2.17;;
20170;SDS011;10245;51.344;6.620;2022-07-12T03:22:23;2.78;;;2.35;;
20170;SDS011;10245;51.344;6.620;2022-07-12T03:24:47;3.10;;;2.45;;
20170;SDS011;10245;51.344;6.620;2022-07-12T03:27:10;5.07;;;2.58;;
20170;SDS011;10245;51.344;6.620;2022-07-12T03:29:34;3.80;;;2.65;;
20170;SDS011;10245;51.344;6.620;2022-07-12T03:31:58;3.42;;;2.70;;
20170;SDS011;10245;51.344;6.620;2022-07-12T03:34:21;6.63;;;3.10;;
20170;SDS011;10245;51.344;6.620;2022-07-12T03:36:45;2.92;;;2.65;;
20170;SDS011;10245;51.344;6.620;2022-07-12T03:39:10;3.15;;;2.85;;
20170;SDS011;10245;51.344;6.620;2022-07-12T03:41:34;3.80;;;3.10;;
20170;SDS011;10245;51.344;6.620;2022-07-12T03:43:58;4.30;;;3.00;;
20170;SDS011;10245;51.344;6.620;2022-07-12T03:46:21;5.97;;;2.92;;
20170;SDS011;10245;51.344;6.620;2022-07-12T03:48:45;4.20;;;3.55;;
20170;SDS011;10245;51.344;6.620;2022-07-12T03:51:08;5.20;;;3.20;;
20170;SDS011;10245;51.344;6.620;2022-07-12T03:53:32;5.18;;;3.63;;
20170;SDS011;10245;51.344;6.620;2022-07-12T03:55:57;4.80;;;3.65;;
20170;SDS011;10245;51.344;6.620;2022-07-12T03:58:21;5.95;;;3.70;;
20170;SDS011;10245;51.344;6.620;2022-07-12T04:00:44;5.75;;;3.60;;
20170;SDS011;10245;51.344;6.620;2022-07-12T04:03:08;7.40;;;3.97;;
20170;SDS011;10245;51.344;6.620;2022-07-12T04:05:32;5.25;;;3.97;;
20170;SDS011;10245;51.344;6.620;2022-07-12T04:07:56;5.43;;;3.90;;
20170;SDS011;10245;51.344;6.620;2022-07-12T04:10:20;6.35;;;4.10;;
20170;SDS011;10245;51.344;6.620;2022-07-12T04:12:45;10.23;;;4.50;;
20170;SDS011;10245;51.344;6.620;2022-07-12T04:15:09;5.80;;;4.35;;
20170;SDS011;10245;51.344;6.620;2022-07-12T04:17:33;5.45;;;3.90;;
20170;SDS011;10245;51.344;6.620;2022-07-12T04:19:57;6.97;;;3.97;;
20170;SDS011;10245;51.344;6.620;2022-07-12T04:22:21;6.65;;;3.70;;
20170;SDS011;10245;51.344;6.620;2022-07-12T04:24:45;6.47;;;4.15;;
20170;SDS011;10245;51.344;6.620;2022-07-12T04:27:09;7.72;;;4.25;;
20170;SDS011;10245;51.344;6.620;2022-07-12T04:29:34;7.57;;;4.05;;
20170;SDS011;10245;51.344;6.620;2022-07-12T04:31:58;5.55;;;4.07;;
20170;SDS011;10245;51.344;6.620;2022-07-12T04:34:21;6.05;;;4.05;;
20170;SDS011;10245;51.344;6.620;2022-07-12T04:36:45;5.78;;;3.72;;
20170;SDS011;10245;51.344;6.620;2022-07-12T04:39:09;5.70;;;4.72;;
20170;SDS011;10245;51.344;6.620;2022-07-12T04:41:33;7.28;;;5.65;;
20170;SDS011;10245;51.344;6.620;2022-07-12T04:43:57;6.60;;;5.20;;
20170;SDS011;10245;51.344;6.620;2022-07-12T04:46:22;8.27;;;4.75;;
20170;SDS011;10245;51.344;6.620;2022-07-12T04:48:45;5.78;;;4.32;;
20170;SDS011;10245;51.344;6.620;2022-07-12T04:51:09;5.55;;;4.93;;
20170;SDS011;10245;51.344;6.620;2022-07-12T04:53:33;5.35;;;4.57;;
20170;SDS011;10245;51.344;6.620;2022-07-12T04:55:57;5.78;;;5.15;;
20170;SDS011;10245;51.344;6.620;2022-07-12T04:58:20;5.72;;;5.10;;
20170;SDS011;10245;51.344;6.620;2022-07-12T05:00:44;6.45;;;5.22;;
20170;SDS011;10245;51.344;6.620;2022-07-12T05:03:09;5.95;;;5.22;;
20170;SDS011;10245;51.344;6.620;2022-07-12T05:05:33;6.40;;;5.20;;
20170;SDS011;10245;51.344;6.620;2022-07-12T05:07:56;6.07;;;5.45;;
20170;SDS011;10245;51.344;6.620;2022-07-12T05:10:20;7.40;;;4.95;;
20170;SDS011;10245;51.344;6.620;2022-07-12T05:12:44;6.78;;;5.80;;
20170;SDS011;10245;51.344;6.620;2022-07-12T05:15:07;9.75;;;7.57;;
20170;SDS011;10245;51.344;6.620;2022-07-12T05:17:31;11.02;;;7.25;;
20170;SDS011;10245;51.344;6.620;2022-07-12T05:19:56;10.77;;;7.60;;
20170;SDS011;10245;51.344;6.620;2022-07-12T05:22:20;9.73;;;7.57;;
20170;SDS011;10245;51.344;6.620;2022-07-12T05:24:44;11.65;;;7.40;;
20170;SDS011;10245;51.344;6.620;2022-07-12T05:27:07;9.38;;;6.60;;
20170;SDS011;10245;51.344;6.620;2022-07-12T05:29:31;9.48;;;6.82;;
20170;SDS011;10245;51.344;6.620;2022-07-12T05:31:56;7.28;;;6.53;;
20170;SDS011;10245;51.344;6.620;2022-07-12T05:34:28;9.15;;;6.60;;
20170;SDS011;10245;51.344;6.620;2022-07-12T05:36:53;9.40;;;7.15;;
20170;SDS011;10245;51.344;6.620;2022-07-12T05:39:17;9.90;;;6.53;;
20170;SDS011;10245;51.344;6.620;2022-07-12T05:41:41;9.13;;;8.02;;
20170;SDS011;10245;51.344;6.620;2022-07-12T05:44:05;9.95;;;8.15;;
20170;SDS011;10245;51.344;6.620;2022-07-12T05:46:29;9.98;;;8.18;;
20170;SDS011;10245;51.344;6.620;2022-07-12T05:48:53;13.35;;;8.35;;
20170;SDS011;10245;51.344;6.620;2022-07-12T05:51:16;12.85;;;9.18;;
20170;SDS011;10245;51.344;6.620;2022-07-12T05:53:59;12.10;;;9.75;;
20170;SDS011;10245;51.344;6.620;2022-07-12T05:56:22;11.57;;;9.48;;
20170;SDS011;10245;51.344;6.620;2022-07-12T05:58:46;11.90;;;9.50;;
20170;SDS011;10245;51.344;6.620;2022-07-12T06:01:09;12.43;;;9.45;;
20170;SDS011;10245;51.344;6.620;2022-07-12T06:03:36;12.23;;;9.20;;
20170;SDS011;10245;51.344;6.620;2022-07-12T06:06:00;10.48;;;9.25;;
20170;SDS011;10245;51.344;6.620;2022-07-12T06:08:23;11.20;;;8.55;;
20170;SDS011;10245;51.344;6.620;2022-07-12T06:10:49;12.73;;;8.50;;
20170;SDS011;10245;51.344;6.620;2022-07-12T06:13:12;10.38;;;9.02;;
20170;SDS011;10245;51.344;6.620;2022-07-12T06:15:36;9.70;;;8.73;;
20170;SDS011;10245;51.344;6.620;2022-07-12T06:18:00;10.55;;;8.93;;
20170;SDS011;10245;51.344;6.620;2022-07-12T06:20:24;11.27;;;9.18;;
20170;SDS011;10245;51.344;6.620;2022-07-12T06:22:48;12.38;;;9.00;;
20170;SDS011;10245;51.344;6.620;2022-07-12T06:25:13;9.25;;;8.07;;
20170;SDS011;10245;51.344;6.620;2022-07-12T06:28:00;8.88;;;7.78;;
20170;SDS011;10245;51.344;6.620;2022-07-12T06:30:24;8.23;;;6.90;;
20170;SDS011;10245;51.344;6.620;2022-07-12T06:32:48;10.73;;;7.53;;
20170;SDS011;10245;51.344;6.620;2022-07-12T06:35:12;8.57;;;7.47;;
20170;SDS011;10245;51.344;6.620;2022-07-12T06:37:37;8.23;;;6.97;;
20170;SDS011;10245;51.344;6.620;2022-07-12T06:40:01;10.07;;;8.00;;
20170;SDS011;10245;51.344;6.620;2022-07-12T06:42:26;8.38;;;6.97;;
20170;SDS011;10245;51.344;6.620;2022-07-12T06:44:54;7.20;;;6.50;;
20170;SDS011;10245;51.344;6.620;2022-07-12T06:47:18;6.82;;;6.18;;
20170;SDS011;10245;51.344;6.620;2022-07-12T06:49:42;8.27;;;6.78;;
20170;SDS011;10245;51.344;6.620;2022-07-12T06:52:06;7.40;;;6.68;;
20170;SDS011;10245;51.344;6.620;2022-07-12T06:54:29;6.93;;;6.20;;
20170;SDS011;10245;51.344;6.620;2022-07-12T06:56:53;6.63;;;6.03;;
20170;SDS011;10245;51.344;6.620;2022-07-12T06:59:17;7.30;;;6.60;;
20170;SDS011;10245;51.344;6.620;2022-07-12T07:01:41;7.43;;;6.10;;
20170;SDS011;10245;51.344;6.620;2022-07-12T07:04:05;7.10;;;6.40;;
20170;SDS011;10245;51.344;6.620;2022-07-12T07:06:32;5.93;;;5.40;;
20170;SDS011;10245;51.344;6.620;2022-07-12T07:08:56;9.18;;;6.90;;
20170;SDS011;10245;51.344;6.620;2022-07-12T07:11:20;6.60;;;5.65;;
20170;SDS011;10245;51.344;6.620;2022-07-12T07:13:43;6.47;;;5.82;;
20170;SDS011;10245;51.344;6.620;2022-07-12T07:16:12;6.25;;;5.38;;
20170;SDS011;10245;51.344;6.620;2022-07-12T07:18:37;6.07;;;5.57;;
20170;SDS011;10245;51.344;6.620;2022-07-12T07:21:01;7.50;;;5.65;;
20170;SDS011;10245;51.344;6.620;2022-07-12T07:23:25;5.90;;;5.30;;
20170;SDS011;10245;51.344;6.620;2022-07-12T07:25:49;7.72;;;5.55;;
20170;SDS011;10245;51.344;6.620;2022-07-12T07:28:12;7.22;;;5.43;;
20170;SDS011;10245;51.344;6.620;2022-07-12T07:30:47;6.80;;;5.45;;
20170;SDS011;10245;51.344;6.620;2022-07-12T07:33:16;5.75;;;5.22;;
20170;SDS011;10245;51.344;6.620;2022-07-12T07:35:42;6.20;;;5.35;;
20170;SDS011;10245;51.344;6.620;2022-07-12T07:38:05;5.97;;;4.90;;
20170;SDS011;10245;51.344;6.620;2022-07-12T07:40:29;7.40;;;4.90;;
20170;SDS011;10245;51.344;6.620;2022-07-12T07:42:52;5.72;;;5.25;;
20170;SDS011;10245;51.344;6.620;2022-07-12T07:45:17;6.10;;;4.82;;
20170;SDS011;10245;51.344;6.620;2022-07-12T07:47:44;5.47;;;4.97;;
20170;SDS011;10245;51.344;6.620;2022-07-12T07:50:29;6.68;;;4.43;;
20170;SDS011;10245;51.344;6.620;2022-07-12T07:52:55;5.60;;;4.30;;
20170;SDS011;10245;51.344;6.620;2022-07-12T07:55:18;5.28;;;4.53;;
20170;SDS011;10245;51.344;6.620;2022-07-12T07:57:42;7.03;;;5.40;;
20170;SDS011;10245;51.344;6.620;2022-07-12T08:00:08;6.88;;;5.18;;
20170;SDS011;10245;51.344;6.620;2022-07-12T08:02:33;4.95;;;4.38;;
20170;SDS011;10245;51.344;6.620;2022-07-12T08:04:57;6.78;;;4.57;;
20170;SDS011;10245;51.344;6.620;2022-07-12T08:07:21;5.25;;;4.75;;
20170;SDS011;10245;51.344;6.620;2022-07-12T08:10:06;5.47;;;4.70;;
20170;SDS011;10245;51.344;6.620;2022-07-12T08:12:31;6.60;;;4.88;;
20170;SDS011;10245;51.344;6.620;2022-07-12T08:14:54;6.07;;;4.10;;
20170;SDS011;10245;51.344;6.620;2022-07-12T08:17:18;4.72;;;3.70;;
20170;SDS011;10245;51.344;6.620;2022-07-12T08:19:42;5.20;;;3.38;;
20170;SDS011;10245;51.344;6.620;2022-07-12T08:22:05;4.80;;;3.13;;
20170;SDS011;10245;51.344;6.620;2022-07-12T08:24:29;4.05;;;3.72;;
20170;SDS011;10245;51.344;6.620;2022-07-12T08:26:54;3.38;;;3.00;;
20170;SDS011;10245;51.344;6.620;2022-07-12T08:29:17;5.50;;;3.95;;
20170;SDS011;10245;51.344;6.620;2022-07-12T08:31:41;3.80;;;3.50;;
20170;SDS011;10245;51.344;6.620;2022-07-12T08:34:05;4.03;;;3.55;;
20170;SDS011;10245;51.344;6.620;2022-07-12T08:36:28;4.90;;;3.60;;
20170;SDS011;10245;51.344;6.620;2022-07-12T08:38:54;4.63;;;3.65;;
20170;SDS011;10245;51.344;6.620;2022-07-12T08:41:18;4.05;;;3.30;;
20170;SDS011;10245;51.344;6.620;2022-07-12T08:43:43;4.63;;;3.13;;
20170;SDS011;10245;51.344;6.620;2022-07-12T08:46:07;3.40;;;3.05;;
20170;SDS011;10245;51.344;6.620;2022-07-12T08:48:32;3.25;;;2.95;;
20170;SDS011;10245;51.344;6.620;2022-07-12T08:51:00;4.15;;;2.88;;
20170;SDS011;10245;51.344;6.620;2022-07-12T08:53:25;3.40;;;3.10;;
20170;SDS011;10245;51.344;6.620;2022-07-12T08:55:49;5.22;;;2.85;;
20170;SDS011;10245;51.344;6.620;2022-07-12T08:58:16;3.08;;;2.65;;
20170;SDS011;10245;51.344;6.620;2022-07-12T09:00:42;2.40;;;2.20;;
20170;SDS011;10245;51.344;6.620;2022-07-12T09:03:10;2.50;;;2.28;;
20170;SDS011;10245;51.344;6.620;2022-07-12T09:05:35;3.05;;;2.42;;
20170;SDS011;10245;51.344;6.620;2022-07-12T09:08:03;2.42;;;2.22;;
20170;SDS011;10245;51.344;6.620;2022-07-12T09:10:28;5.28;;;2.30;;
20170;SDS011;10245;51.344;6.620;2022-07-12T09:12:52;3.35;;;2.55;;
20170;SDS011;10245;51.344;6.620;2022-07-12T09:15:17;3.67;;;2.20;;
20170;SDS011;10245;51.344;6.620;2022-07-12T09:17:53;5.38;;;2.63;;
20170;SDS011;10245;51.344;6.620;2022-07-12T09:20:19;3.70;;;2.85;;
20170;SDS011;10245;51.344;6.620;2022-07-12T09:22:50;4.25;;;3.40;;
20170;SDS011;10245;51.344;6.620;2022-07-12T09:25:15;3.13;;;2.78;;
20170;SDS011;10245;51.344;6.620;2022-07-12T09:27:46;6.80;;;4.30;;
20170;SDS011;10245;51.344;6.620;2022-07-12T09:30:13;3.85;;;3.50;;
20170;SDS011;10245;51.344;6.620;2022-07-12T09:32:49;3.35;;;2.92;;
20170;SDS011;10245;51.344;6.620;2022-07-12T09:35:33;3.97;;;2.92;;
20170;SDS011;10245;51.344;6.620;2022-07-12T09:38:19;2.70;;;2.50;;
20170;SDS011;10245;51.344;6.620;2022-07-12T09:40:43;5.13;;;2.75;;
20170;SDS011;10245;51.344;6.620;2022-07-12T09:43:07;5.85;;;2.53;;
20170;SDS011;10245;51.344;6.620;2022-07-12T09:45:31;8.75;;;3.10;;
20170;SDS011;10245;51.344;6.620;2022-07-12T09:47:56;4.10;;;3.00;;
20170;SDS011;10245;51.344;6.620;2022-07-12T09:50:21;3.50;;;2.80;;
20170;SDS011;10245;51.344;6.620;2022-07-12T09:52:44;5.03;;;3.22;;
20170;SDS011;10245;51.344;6.620;2022-07-12T09:55:12;4.50;;;3.05;;
20170;SDS011;10245;51.344;6.620;2022-07-12T09:57:40;3.97;;;2.72;;
20170;SDS011;10245;51.344;6.620;2022-07-12T10:00:05;3.35;;;3.00;;
20170;SDS011;10245;51.344;6.620;2022-07-12T10:02:32;4.30;;;3.00;;
20170;SDS011;10245;51.344;6.620;2022-07-12T10:04:58;4.72;;;3.15;;
20170;SDS011;10245;51.344;6.620;2022-07-12T10:07:26;3.33;;;2.95;;
20170;SDS011;10245;51.344;6.620;2022-07-12T10:09:51;4.30;;;3.50;;
20170;SDS011;10245;51.344;6.620;2022-07-12T10:12:16;3.78;;;3.00;;
20170;SDS011;10245;51.344;6.620;2022-07-12T10:14:43;3.10;;;2.80;;
20170;SDS011;10245;51.344;6.620;2022-07-12T10:17:08;3.30;;;2.88;;
20170;SDS011;10245;51.344;6.620;2022-07-12T10:19:32;3.42;;;3.00;;
20170;SDS011;10245;51.344;6.620;2022-07-12T10:21:59;3.05;;;2.75;;
20170;SDS011;10245;51.344;6.620;2022-07-12T10:27:31;3.72;;;2.67;;
20170;SDS011;10245;51.344;6.620;2022-07-12T10:30:11;2.38;;;2.17;;
20170;SDS011;10245;51.344;6.620;2022-07-12T10:32:43;2.53;;;2.22;;
20170;SDS011;10245;51.344;6.620;2022-07-12T10:35:11;4.20;;;2.65;;
20170;SDS011;10245;51.344;6.620;2022-07-12T10:37:38;2.67;;;2.33;;
20170;SDS011;10245;51.344;6.620;2022-07-12T10:40:11;3.40;;;2.10;;
20170;SDS011;10245;51.344;6.620;2022-07-12T10:42:37;3.72;;;2.08;;
20170;SDS011;10245;51.344;6.620;2022-07-12T10:45:09;4.35;;;2.63;;
20170;SDS011;10245;51.344;6.620;2022-07-12T10:50:17;4.18;;;2.60;;
20170;SDS011;10245;51.344;6.620;2022-07-12T10:52:42;2.85;;;2.55;;
20170;SDS011;10245;51.344;6.620;2022-07-12T10:55:16;3.83;;;2.85;;
20170;SDS011;10245;51.344;6.620;2022-07-12T10:57:41;2.75;;;2.50;;
20170;SDS011;10245;51.344;6.620;2022-07-12T11:00:08;4.35;;;2.55;;
20170;SDS011;10245;51.344;6.620;2022-07-12T11:02:33;3.08;;;2.78;;
20170;SDS011;10245;51.344;6.620;2022-07-12T11:04:56;4.25;;;2.97;;
20170;SDS011;10245;51.344;6.620;2022-07-12T11:07:20;5.22;;;3.10;;
20170;SDS011;10245;51.344;6.620;2022-07-12T11:09:52;4.00;;;2.90;;
20170;SDS011;10245;51.344;6.620;2022-07-12T11:12:16;3.90;;;3.03;;
20170;SDS011;10245;51.344;6.620;2022-07-12T11:14:40;4.18;;;2.63;;
20170;SDS011;10245;51.344;6.620;2022-07-12T11:20:05;6.30;;;3.20;;
20170;SDS011;10245;51.344;6.620;2022-07-12T11:22:32;3.75;;;3.40;;
20170;SDS011;10245;51.344;6.620;2022-07-12T11:24:57;5.47;;;3.90;;
20170;SDS011;10245;51.344;6.620;2022-07-12T11:27:21;3.25;;;2.95;;
20170;SDS011;10245;51.344;6.620;2022-07-12T11:29:55;2.90;;;2.70;;
20170;SDS011;10245;51.344;6.620;2022-07-12T11:32:20;3.53;;;2.80;;
20170;SDS011;10245;51.344;6.620;2022-07-12T11:34:57;4.22;;;3.08;;
20170;SDS011;10245;51.344;6.620;2022-07-12T11:37:20;6.03;;;3.42;;
20170;SDS011;10245;51.344;6.620;2022-07-12T11:39:44;3.60;;;3.30;;
20170;SDS011;10245;51.344;6.620;2022-07-12T11:42:09;4.65;;;3.60;;
20170;SDS011;10245;51.344;6.620;2022-07-12T11:44:43;5.07;;;3.72;;
20170;SDS011;10245;51.344;6.620;2022-07-12T11:47:08;4.15;;;3.72;;
20170;SDS011;10245;51.344;6.620;2022-07-12T11:49:33;4.78;;;3.10;;
20170;SDS011;10245;51.344;6.620;2022-07-12T11:51:57;3.67;;;3.38;;
20170;SDS011;10245;51.344;6.620;2022-07-12T11:54:24;3.38;;;3.08;;
20170;SDS011;10245;51.344;6.620;2022-07-12T11:56:48;4.05;;;2.90;;
20170;SDS011;10245;51.344;6.620;2022-07-12T11:59:13;4.93;;;3.03;;
20170;SDS011;10245;51.344;6.620;2022-07-12T12:04:27;3.42;;;3.13;;
20170;SDS011;10245;51.344;6.620;2022-07-12T12:06:51;4.30;;;3.28;;
20170;SDS011;10245;51.344;6.620;2022-07-12T12:09:15;3.78;;;3.10;;
20170;SDS011;10245;51.344;6.620;2022-07-12T12:11:38;3.25;;;2.90;;
20170;SDS011;10245;51.344;6.620;2022-07-12T12:14:02;3.63;;;2.83;;
20170;SDS011;10245;51.344;6.620;2022-07-12T12:16:27;4.72;;;3.30;;
20170;SDS011;10245;51.344;6.620;2022-07-12T12:18:59;6.28;;;3.00;;
20170;SDS011;10245;51.344;6.620;2022-07-12T12:21:25;3.58;;;3.10;;
20170;SDS011;10245;51.344;6.620;2022-07-12T12:23:49;3.75;;;3.22;;
20170;SDS011;10245;51.344;6.620;2022-07-12T12:26:31;8.02;;;3.08;;
20170;SDS011;10245;51.344;6.620;2022-07-12T12:28:55;3.50;;;3.20;;
20170;SDS011;10245;51.344;6.620;2022-07-12T12:31:19;3.20;;;2.90;;
20170;SDS011;10245;51.344;6.620;2022-07-12T12:33:46;3.40;;;3.10;;
20170;SDS011;10245;51.344;6.620;2022-07-12T12:36:14;5.32;;;3.17;;
20170;SDS011;10245;51.344;6.620;2022-07-12T12:38:48;3.42;;;2.72;;
20170;SDS011;10245;51.344;6.620;2022-07-12T12:41:13;3.17;;;2.70;;
20170;SDS011;10245;51.344;6.620;2022-07-12T12:43:37;3.22;;;2.88;;
20170;SDS011;10245;51.344;6.620;2022-07-12T12:46:01;4.10;;;3.08;;
20170;SDS011;10245;51.344;6.620;2022-07-12T12:48:26;4.13;;;2.95;;
20170;SDS011;10245;51.344;6.620;2022-07-12T12:50:53;4.82;;;3.03;;
20170;SDS011;10245;51.344;6.620;2022-07-12T12:53:25;5.57;;;2.80;;
20170;SDS011;10245;51.344;6.620;2022-07-12T12:55:49;3.40;;;2.25;;
20170;SDS011;10245;51.344;6.620;2022-07-12T12:58:15;4.25;;;2.50;;
20170;SDS011;10245;51.344;6.620;2022-07-12T13:00:40;3.13;;;2.33;;
20170;SDS011;10245;51.344;6.620;2022-07-12T13:03:05;3.55;;;2.40;;
20170;SDS011;10245;51.344;6.620;2022-07-12T13:05:30;2.15;;;1.95;;
20170;SDS011;10245;51.344;6.620;2022-07-12T13:07:55;3.65;;;2.30;;
20170;SDS011;10245;51.344;6.620;2022-07-12T13:10:19;3.17;;;2.20;;
20170;SDS011;10245;51.344;6.620;2022-07-12T13:12:43;2.10;;;1.90;;
20170;SDS011;10245;51.344;6.620;2022-07-12T13:15:07;2.40;;;2.10;;
20170;SDS011;10245;51.344;6.620;2022-07-12T13:17:31;2.75;;;1.98;;
20170;SDS011;10245;51.344;6.620;2022-07-12T13:19:54;2.40;;;2.20;;
20170;SDS011;10245;51.344;6.620;2022-07-12T13:22:18;1.95;;;1.85;;
20170;SDS011;10245;51.344;6.620;2022-07-12T13:24:43;3.00;;;2.00;;
20170;SDS011;10245;51.344;6.620;2022-07-12T13:27:07;2.10;;;1.90;;
20170;SDS011;10245;51.344;6.620;2022-07-12T13:29:30;3.08;;;1.90;;
20170;SDS011;10245;51.344;6.620;2022-07-12T13:31:55;1.90;;;1.80;;
20170;SDS011;10245;51.344;6.620;2022-07-12T13:34:18;3.85;;;1.92;;
20170;SDS011;10245;51.344;6.620;2022-07-12T13:36:42;1.98;;;1.75;;
20170;SDS011;10245;51.344;6.620;2022-07-12T13:39:06;5.55;;;2.00;;
20170;SDS011;10245;51.344;6.620;2022-07-12T13:41:48;2.53;;;2.10;;
20170;SDS011;10245;51.344;6.620;2022-07-12T13:44:12;2.13;;;1.80;;
20170;SDS011;10245;51.344;6.620;2022-07-12T13:46:42;2.58;;;2.15;;
20170;SDS011;10245;51.344;6.620;2022-07-12T13:49:06;2.42;;;2.22;;
20170;SDS011;10245;51.344;6.620;2022-07-12T13:51:30;3.58;;;2.00;;
20170;SDS011;10245;51.344;6.620;2022-07-12T13:53:53;2.50;;;1.80;;
20170;SDS011;10245;51.344;6.620;2022-07-12T13:56:17;3.45;;;1.92;;
20170;SDS011;10245;51.344;6.620;2022-07-12T13:58:45;5.25;;;2.45;;
20170;SDS011;10245;51.344;6.620;2022-07-12T14:01:09;1.88;;;1.77;;
20170;SDS011;10245;51.344;6.620;2022-07-12T14:03:33;4.28;;;1.98;;
20170;SDS011;10245;51.344;6.620;2022-07-12T14:05:56;2.65;;;2.40;;
20170;SDS011;10245;51.344;6.620;2022-07-12T14:08:20;1.92;;;1.77;;
20170;SDS011;10245;51.344;6.620;2022-07-12T14:10:43;3.63;;;2.75;;
20170;SDS011;10245;51.344;6.620;2022-07-12T14:13:07;2.78;;;2.25;;
20170;SDS011;10245;51.344;6.620;2022-07-12T14:15:32;2.40;;;2.20;;
20170;SDS011;10245;51.344;6.620;2022-07-12T14:17:59;4.47;;;2.20;;
20170;SDS011;10245;51.344;6.620;2022-07-12T14:20:23;2.53;;;1.90;;
20170;SDS011;10245;51.344;6.620;2022-07-12T14:22:52;2.10;;;1.98;;
20170;SDS011;10245;51.344;6.620;2022-07-12T14:25:17;2.17;;;1.98;;
20170;SDS011;10245;51.344;6.620;2022-07-12T14:27:42;2.88;;;2.03;;
20170;SDS011;10245;51.344;6.620;2022-07-12T14:30:06;5.82;;;2.33;;
20170;SDS011;10245;51.344;6.620;2022-07-12T14:32:33;4.22;;;2.22;;
20170;SDS011;10245;51.344;6.620;2022-07-12T14:34:58;2.25;;;2.05;;
20170;SDS011;10245;51.344;6.620;2022-07-12T14:37:21;1.95;;;1.73;;
20170;SDS011;10245;51.344;6.620;2022-07-12T14:39:45;2.90;;;1.95;;
20170;SDS011;10245;51.344;6.620;2022-07-12T14:42:09;3.60;;;1.90;;
20170;SDS011;10245;51.344;6.620;2022-07-12T14:44:33;2.47;;;2.05;;
20170;SDS011;10245;51.344;6.620;2022-07-12T14:46:57;2.55;;;2.00;;